Time;durP1;ratioP1;P1;durP2;ratioP2;P2;SDS_P1;SDS_P2;PMS_P1;PMS_P2;Temp;Humidity;BMP_temperature;BMP_pressure;BME280_temperature;BME280_humidity;BME280_pressure;Samples;Min_cycle;Max_cycle;Signal;HPM_P1;HPM_P2
2024/01/23 00:02:22;;;;;;;9.45;2.75;;;5.00;99.90;;;;;;5007918;28;20032;-64
2024/01/23 00:04:47;;;;;;;11.88;2.95;;;5.00;99.90;;;;;;5013575;28;20033;-64
2024/01/23 00:07:13;;;;;;;15.10;3.75;;;4.90;99.90;;;;;;5011691;28;20022;-63
2024/01/23 00:09:38;;;;;;;9.57;3.28;;;4.90;99.90;;;;;;5017707;28;20030;-64
2024/01/23 00:12:05;;;;;;;12.30;2.30;;;4.90;99.90;;;;;;5013990;28;20014;-64
2024/01/23 00:14:32;;;;;;;5.15;2.38;;;4.80;99.90;;;;;;5015020;28;20041;-65
2024/01/23 00:16:57;;;;;;;10.25;2.33;;;4.80;99.90;;;;;;5011643;28;20040;-64
2024/01/23 00:19:23;;;;;;;9.05;2.42;;;4.70;99.90;;;;;;5014045;28;20096;-63
2024/01/23 00:21:48;;;;;;;6.63;2.45;;;4.70;99.90;;;;;;5017661;28;20229;-63
2024/01/23 00:24:14;;;;;;;11.07;2.28;;;4.60;99.90;;;;;;5015100;28;20034;-64
2024/01/23 00:26:39;;;;;;;14.27;2.88;;;4.70;99.90;;;;;;5015704;28;20030;-62
2024/01/23 00:29:07;;;;;;;10.35;2.25;;;4.60;99.90;;;;;;5009912;28;20030;-63
2024/01/23 00:31:33;;;;;;;12.05;2.30;;;4.60;99.90;;;;;;5011960;28;20068;-64
2024/01/23 00:33:59;;;;;;;11.70;2.50;;;4.70;99.90;;;;;;5014053;28;20045;-64
2024/01/23 00:36:24;;;;;;;13.23;2.13;;;4.70;99.90;;;;;;5011405;28;20123;-64
2024/01/23 00:38:49;;;;;;;11.75;2.58;;;4.80;99.90;;;;;;5014558;28;20026;-64
2024/01/23 00:41:15;;;;;;;12.93;2.70;;;4.80;99.90;;;;;;5012288;28;20055;-63
2024/01/23 00:43:40;;;;;;;6.97;2.15;;;4.90;99.90;;;;;;5013608;28;20033;-63
2024/01/23 00:46:06;;;;;;;9.70;3.03;;;4.90;99.90;;;;;;5015126;28;20018;-64
2024/01/23 00:48:32;;;;;;;7.40;2.55;;;5.00;99.90;;;;;;5018919;28;20087;-63
2024/01/23 00:50:57;;;;;;;8.57;2.53;;;5.10;99.90;;;;;;5019584;28;20241;-63
2024/01/23 00:53:23;;;;;;;8.63;2.03;;;5.20;99.90;;;;;;5019357;28;20244;-64
2024/01/23 00:55:48;;;;;;;6.15;2.30;;;5.30;99.90;;;;;;5021033;28;20544;-63
2024/01/23 00:58:15;;;;;;;11.95;2.63;;;5.50;99.90;;;;;;5019095;28;20029;-64
2024/01/23 01:00:44;;;;;;;7.30;2.00;;;5.50;99.90;;;;;;5019277;28;20048;-63
2024/01/23 01:03:10;;;;;;;5.22;1.55;;;5.60;99.90;;;;;;5016353;28;20029;-64
2024/01/23 01:05:35;;;;;;;4.95;1.83;;;5.70;99.90;;;;;;5014914;28;20179;-63
2024/01/23 01:08:01;;;;;;;7.45;2.03;;;5.80;99.90;;;;;;5022965;28;20033;-63
2024/01/23 01:10:26;;;;;;;11.55;2.05;;;5.90;99.90;;;;;;5021486;28;20526;-64
2024/01/23 01:12:53;;;;;;;10.30;1.88;;;5.90;99.90;;;;;;5024551;28;20025;-63
2024/01/23 01:15:18;;;;;;;6.35;1.95;;;6.00;99.90;;;;;;5023003;28;20045;-64
2024/01/23 01:17:44;;;;;;;5.40;2.00;;;6.00;99.90;;;;;;5022754;28;20067;-63
2024/01/23 01:20:10;;;;;;;7.22;2.65;;;6.00;99.90;;;;;;5022745;28;20104;-64
2024/01/23 01:22:35;;;;;;;9.07;1.95;;;6.10;99.90;;;;;;5022750;28;20032;-64
2024/01/23 01:25:01;;;;;;;7.55;2.15;;;6.10;99.90;;;;;;5018197;28;20029;-63
2024/01/23 01:27:27;;;;;;;8.82;1.83;;;6.10;99.90;;;;;;5019195;28;20044;-64
2024/01/23 01:29:53;;;;;;;7.78;2.40;;;6.10;99.90;;;;;;5022467;28;20040;-63
2024/01/23 01:32:18;;;;;;;7.75;2.15;;;6.10;99.90;;;;;;5021695;28;20029;-64
2024/01/23 01:34:44;;;;;;;6.25;1.77;;;6.20;99.90;;;;;;5022438;28;20033;-63
2024/01/23 01:37:09;;;;;;;5.00;1.70;;;6.20;99.90;;;;;;5022108;28;20030;-63
2024/01/23 01:39:35;;;;;;;4.45;1.58;;;6.20;99.90;;;;;;5022602;28;20040;-63
2024/01/23 01:42:00;;;;;;;7.65;1.90;;;6.20;99.90;;;;;;5013978;28;20044;-63
2024/01/23 01:44:26;;;;;;;9.27;2.22;;;6.10;99.90;;;;;;5021174;28;20590;-64
2024/01/23 01:46:52;;;;;;;5.93;1.45;;;6.10;99.90;;;;;;5016762;28;20111;-64
2024/01/23 01:49:18;;;;;;;3.88;1.40;;;6.10;99.90;;;;;;5016660;28;20028;-64
2024/01/23 01:51:44;;;;;;;3.90;1.70;;;6.00;99.90;;;;;;5011725;28;20511;-63
2024/01/23 01:54:10;;;;;;;4.80;1.35;;;5.90;99.90;;;;;;5013975;28;20069;-63
2024/01/23 01:56:36;;;;;;;6.90;2.00;;;5.90;99.90;;;;;;5017896;28;20045;-65
2024/01/23 01:59:02;;;;;;;8.27;1.48;;;5.80;99.90;;;;;;5015905;28;20100;-63
2024/01/23 02:01:28;;;;;;;6.22;1.40;;;5.70;99.90;;;;;;5011551;28;20054;-63
2024/01/23 02:03:54;;;;;;;4.88;1.60;;;5.60;99.90;;;;;;5012460;28;20457;-64
2024/01/23 02:06:20;;;;;;;6.05;1.38;;;5.60;99.90;;;;;;5015424;28;20547;-63
2024/01/23 02:08:48;;;;;;;7.22;1.50;;;5.50;99.90;;;;;;5020717;28;20049;-63
2024/01/23 02:11:14;;;;;;;4.03;1.20;;;5.50;99.90;;;;;;5014799;28;20037;-64
2024/01/23 02:13:40;;;;;;;4.15;1.27;;;5.50;99.90;;;;;;5013201;28;20034;-63
2024/01/23 02:16:06;;;;;;;3.50;1.02;;;5.50;99.90;;;;;;5015742;28;20073;-64
2024/01/23 02:18:32;;;;;;;4.28;1.77;;;5.50;99.90;;;;;;5013525;28;20021;-64
2024/01/23 02:20:57;;;;;;;3.85;1.00;;;5.50;99.90;;;;;;5017533;28;20021;-64
2024/01/23 02:23:28;;;;;;;5.85;1.35;;;5.40;99.90;;;;;;5015322;28;20694;-63
2024/01/23 02:25:54;;;;;;;2.53;0.93;;;5.40;99.90;;;;;;5015238;28;20049;-64
2024/01/23 02:28:20;;;;;;;4.20;1.10;;;5.40;99.90;;;;;;5017509;28;20030;-63
2024/01/23 02:30:45;;;;;;;6.43;1.10;;;5.40;99.90;;;;;;5021435;28;20037;-62
2024/01/23 02:33:11;;;;;;;4.85;1.30;;;5.30;99.90;;;;;;5013867;28;20029;-63
2024/01/23 02:35:37;;;;;;;4.15;1.10;;;5.30;99.90;;;;;;5014611;28;20030;-64
2024/01/23 02:38:03;;;;;;;4.75;1.50;;;5.30;99.90;;;;;;5018286;28;20026;-64
2024/01/23 02:40:29;;;;;;;6.43;1.75;;;5.30;99.90;;;;;;5018490;28;20029;-63
2024/01/23 02:42:54;;;;;;;5.55;1.55;;;5.30;99.90;;;;;;5014398;28;20029;-63
2024/01/23 02:45:20;;;;;;;3.72;1.25;;;5.40;99.90;;;;;;5013163;28;20026;-63
2024/01/23 02:47:46;;;;;;;5.38;1.52;;;5.40;99.90;;;;;;5018957;28;20026;-64
2024/01/23 02:50:11;;;;;;;5.63;1.20;;;5.30;99.90;;;;;;5016859;28;20514;-63
2024/01/23 02:52:37;;;;;;;4.03;1.08;;;5.20;99.90;;;;;;5014663;28;20030;-64
2024/01/23 02:55:04;;;;;;;5.03;1.52;;;5.20;99.90;;;;;;5018424;28;20025;-64
2024/01/23 02:57:29;;;;;;;6.93;2.22;;;5.10;99.90;;;;;;5014756;28;20394;-63
2024/01/23 02:59:55;;;;;;;3.35;1.40;;;5.10;99.90;;;;;;5016563;28;20060;-63
2024/01/23 03:02:23;;;;;;;6.43;1.25;;;5.20;99.90;;;;;;5009741;28;20736;-63
2024/01/23 03:04:49;;;;;;;6.07;2.10;;;5.20;99.90;;;;;;5018576;28;20642;-63
2024/01/23 03:07:16;;;;;;;6.78;1.95;;;5.20;99.90;;;;;;5014381;28;20044;-64
2024/01/23 03:09:41;;;;;;;5.30;1.50;;;5.20;99.90;;;;;;5013713;28;20038;-63
2024/01/23 03:12:36;;;;;;;3.63;1.75;;;5.10;99.90;;;;;;5015637;28;20021;-64
2024/01/23 03:15:02;;;;;;;5.22;2.08;;;5.10;99.90;;;;;;5006200;28;20037;-64
2024/01/23 03:17:28;;;;;;;7.57;1.67;;;5.10;99.90;;;;;;5016294;28;20402;-63
2024/01/23 03:19:53;;;;;;;4.10;1.70;;;5.00;99.90;;;;;;5017025;28;20102;-63
2024/01/23 03:22:19;;;;;;;7.65;2.03;;;5.00;99.90;;;;;;5020615;28;20386;-64
2024/01/23 03:24:44;;;;;;;5.45;1.60;;;5.10;99.90;;;;;;5020016;28;20553;-63
2024/01/23 03:27:10;;;;;;;6.28;1.90;;;5.10;99.90;;;;;;5020198;28;20032;-64
2024/01/23 03:29:53;;;;;;;2.63;1.30;;;5.10;99.90;;;;;;5016269;28;20052;-63
2024/01/23 03:32:19;;;;;;;4.03;1.40;;;5.10;99.90;;;;;;5020492;28;20132;-64
2024/01/23 03:34:44;;;;;;;3.90;1.60;;;5.10;99.90;;;;;;5020542;28;20592;-63
2024/01/23 03:37:10;;;;;;;5.00;1.30;;;5.10;99.90;;;;;;5019866;28;20036;-63
2024/01/23 03:39:35;;;;;;;7.72;1.60;;;5.10;99.90;;;;;;5020447;28;20539;-63
2024/01/23 03:42:02;;;;;;;10.10;1.88;;;5.10;99.90;;;;;;5020063;28;20040;-63
2024/01/23 03:44:28;;;;;;;8.10;1.80;;;5.20;99.90;;;;;;5021944;28;20509;-63
2024/01/23 03:46:54;;;;;;;4.60;1.70;;;5.20;99.90;;;;;;5012592;28;20080;-63
2024/01/23 03:49:20;;;;;;;6.40;1.75;;;5.20;99.90;;;;;;5015646;28;20033;-64
2024/01/23 03:51:45;;;;;;;5.80;1.67;;;5.20;99.90;;;;;;5013694;28;20052;-65
2024/01/23 03:54:11;;;;;;;5.70;1.75;;;5.20;99.90;;;;;;5017986;28;20021;-65
2024/01/23 03:56:36;;;;;;;5.80;2.03;;;5.10;99.90;;;;;;5015899;28;20060;-61
2024/01/23 03:59:02;;;;;;;6.32;2.72;;;5.10;99.90;;;;;;5014035;28;20072;-63
2024/01/23 04:01:27;;;;;;;8.18;2.17;;;5.10;99.90;;;;;;5006459;28;20449;-59
2024/01/23 04:03:53;;;;;;;10.25;2.03;;;5.00;99.90;;;;;;5015028;28;20033;-61
2024/01/23 04:06:19;;;;;;;6.78;2.33;;;5.00;99.90;;;;;;5012031;28;20105;-60
2024/01/23 04:08:44;;;;;;;4.13;2.08;;;5.00;99.90;;;;;;5015772;28;20033;-59
2024/01/23 04:11:10;;;;;;;4.75;1.80;;;5.00;99.90;;;;;;5011484;28;20065;-61
2024/01/23 04:13:36;;;;;;;9.70;2.00;;;4.90;99.90;;;;;;5018314;28;20037;-60
2024/01/23 04:16:02;;;;;;;4.65;1.63;;;4.90;99.90;;;;;;5015360;28;20432;-59
2024/01/23 04:18:28;;;;;;;10.57;2.20;;;4.90;99.90;;;;;;5011522;28;20060;-61
2024/01/23 04:20:53;;;;;;;4.28;1.77;;;4.90;99.90;;;;;;5014121;28;20025;-60
2024/01/23 04:23:19;;;;;;;5.50;1.30;;;4.90;99.90;;;;;;5017863;28;20022;-60
2024/01/23 04:25:44;;;;;;;5.85;1.40;;;4.80;99.90;;;;;;5007801;28;20022;-59
2024/01/23 04:28:10;;;;;;;3.22;1.52;;;4.80;99.90;;;;;;5011843;28;20026;-59
2024/01/23 04:30:35;;;;;;;3.63;1.05;;;4.70;99.90;;;;;;5021610;28;20114;-60
2024/01/23 04:33:01;;;;;;;6.45;1.80;;;4.70;99.90;;;;;;5016153;28;20033;-60
2024/01/23 04:35:27;;;;;;;3.75;1.65;;;4.70;99.90;;;;;;5013932;28;20056;-61
2024/01/23 04:37:52;;;;;;;4.57;1.20;;;4.60;99.90;;;;;;5014566;28;20033;-62
2024/01/23 04:40:18;;;;;;;5.78;1.30;;;4.50;99.90;;;;;;5019414;28;20044;-59
2024/01/23 04:42:43;;;;;;;8.27;1.65;;;4.50;99.90;;;;;;5017855;28;20100;-60
2024/01/23 04:45:09;;;;;;;5.10;2.03;;;4.50;99.90;;;;;;5019027;28;20457;-59
2024/01/23 04:47:35;;;;;;;10.27;2.03;;;4.50;99.90;;;;;;5019040;28;20040;-60
2024/01/23 04:50:01;;;;;;;8.00;1.30;;;4.50;99.90;;;;;;5019276;28;20037;-60
2024/01/23 04:52:26;;;;;;;3.35;1.30;;;4.50;99.90;;;;;;5023311;28;20032;-60
2024/01/23 04:54:52;;;;;;;8.55;1.90;;;4.50;99.90;;;;;;5023218;28;20033;-61
2024/01/23 04:57:18;;;;;;;7.95;1.83;;;4.60;99.90;;;;;;5025056;28;20100;-60
2024/01/23 04:59:44;;;;;;;6.68;2.42;;;4.60;99.90;;;;;;5023442;28;20132;-60
2024/01/23 05:02:09;;;;;;;8.57;1.65;;;4.70;99.90;;;;;;5016026;28;20764;-62
2024/01/23 05:04:35;;;;;;;5.55;1.83;;;4.70;99.90;;;;;;5021130;28;20025;-60
2024/01/23 05:07:01;;;;;;;3.08;1.63;;;4.80;99.90;;;;;;5017294;28;20048;-59
2024/01/23 05:09:30;;;;;;;8.32;1.55;;;4.80;99.90;;;;;;5014403;28;20029;-62
2024/01/23 05:11:56;;;;;;;5.75;1.50;;;4.80;99.90;;;;;;5013694;28;20038;-59
2024/01/23 05:14:22;;;;;;;3.13;1.70;;;4.90;99.90;;;;;;5019634;28;20071;-60
2024/01/23 05:16:48;;;;;;;4.30;1.25;;;4.90;99.90;;;;;;5018891;28;20068;-60
2024/01/23 05:19:14;;;;;;;6.70;1.63;;;4.90;99.90;;;;;;5020575;28;20900;-61
2024/01/23 05:21:40;;;;;;;4.38;1.42;;;5.00;99.90;;;;;;5018566;28;20416;-60
2024/01/23 05:24:05;;;;;;;5.70;1.40;;;5.00;99.90;;;;;;5018495;28;20033;-59
2024/01/23 05:26:31;;;;;;;2.65;1.48;;;5.00;99.90;;;;;;5013858;28;20042;-61
2024/01/23 05:28:57;;;;;;;6.22;1.48;;;5.10;99.90;;;;;;5016982;28;20018;-59
2024/01/23 05:31:22;;;;;;;10.68;1.70;;;5.10;99.90;;;;;;5018395;28;20438;-62
2024/01/23 05:33:48;;;;;;;6.53;1.67;;;5.10;99.90;;;;;;5014526;28;20025;-62
2024/01/23 05:36:13;;;;;;;3.88;1.75;;;5.10;99.90;;;;;;5016741;28;20099;-61
2024/01/23 05:38:39;;;;;;;10.40;2.15;;;5.10;99.90;;;;;;5016713;28;20029;-59
2024/01/23 05:41:05;;;;;;;5.43;1.50;;;5.20;99.90;;;;;;5021863;28;20036;-59
2024/01/23 05:43:30;;;;;;;3.22;1.55;;;5.20;99.90;;;;;;5015329;28;20026;-59
2024/01/23 05:45:56;;;;;;;6.43;1.67;;;5.20;99.90;;;;;;5016935;28;20026;-59
2024/01/23 05:48:21;;;;;;;9.07;2.03;;;5.20;99.90;;;;;;5016852;28;20121;-59
2024/01/23 05:50:47;;;;;;;8.05;2.13;;;5.20;99.90;;;;;;5019238;28;20387;-59
2024/01/23 05:53:13;;;;;;;6.03;2.33;;;5.20;99.90;;;;;;5018022;28;20042;-58
2024/01/23 05:55:38;;;;;;;3.78;1.48;;;5.20;99.90;;;;;;5016192;28;20445;-59
2024/01/23 05:58:05;;;;;;;7.07;1.85;;;5.20;99.90;;;;;;5009756;28;20053;-59
2024/01/23 06:00:31;;;;;;;3.13;1.35;;;5.20;99.90;;;;;;5013868;28;20046;-59
2024/01/23 06:02:56;;;;;;;5.32;1.40;;;5.20;99.90;;;;;;5016137;28;20026;-59
2024/01/23 06:05:22;;;;;;;4.88;1.65;;;5.20;99.90;;;;;;5021356;28;20049;-59
2024/01/23 06:07:51;;;;;;;6.45;1.98;;;5.20;99.90;;;;;;5021541;28;20495;-58
2024/01/23 06:10:17;;;;;;;4.43;1.63;;;5.10;99.90;;;;;;5021601;28;20052;-59
2024/01/23 06:12:43;;;;;;;13.90;1.63;;;5.10;99.90;;;;;;5021661;28;20028;-58
2024/01/23 06:15:09;;;;;;;11.50;2.03;;;5.20;99.90;;;;;;5021415;28;20029;-58
2024/01/23 06:17:35;;;;;;;4.93;2.10;;;5.20;99.90;;;;;;5021636;28;20025;-59
2024/01/23 06:20:04;;;;;;;3.38;1.65;;;5.10;99.90;;;;;;5023662;28;20087;-58
2024/01/23 06:22:30;;;;;;;8.23;1.90;;;5.10;99.90;;;;;;5019271;28;20501;-59
2024/01/23 06:25:06;;;;;;;8.35;2.75;;;5.10;99.90;;;;;;5021429;28;20086;-58
2024/01/23 06:27:32;;;;;;;6.88;2.00;;;5.10;99.90;;;;;;5021502;28;20485;-59
2024/01/23 06:29:57;;;;;;;6.53;2.40;;;5.10;99.90;;;;;;5021628;28;20041;-58
2024/01/23 06:32:24;;;;;;;5.05;1.70;;;5.10;99.90;;;;;;5021413;28;20518;-59
2024/01/23 06:34:50;;;;;;;5.18;1.48;;;5.00;99.90;;;;;;5012854;28;20025;-59
2024/01/23 06:37:16;;;;;;;7.15;1.58;;;5.00;99.90;;;;;;5016475;28;20044;-58
2024/01/23 06:39:41;;;;;;;4.13;1.00;;;5.00;99.90;;;;;;5017942;28;20401;-58
2024/01/23 06:42:07;;;;;;;6.47;1.70;;;5.00;99.90;;;;;;5022888;28;20072;-59
2024/01/23 06:44:34;;;;;;;4.78;1.80;;;5.00;99.90;;;;;;5021041;28;20021;-58
2024/01/23 06:47:00;;;;;;;4.85;1.52;;;5.00;99.90;;;;;;5020904;28;20591;-58
2024/01/23 06:49:25;;;;;;;6.68;1.80;;;5.00;99.90;;;;;;5021111;28;20037;-59
2024/01/23 06:51:51;;;;;;;4.60;1.50;;;5.00;99.90;;;;;;5012499;28;20084;-58
2024/01/23 06:54:16;;;;;;;5.20;1.58;;;5.00;99.90;;;;;;5016633;28;20030;-59
2024/01/23 06:56:42;;;;;;;4.30;1.50;;;5.00;99.90;;;;;;5014912;28;20025;-58
2024/01/23 06:59:07;;;;;;;5.70;1.73;;;5.00;99.90;;;;;;5016319;28;20076;-59
2024/01/23 07:01:33;;;;;;;6.50;1.58;;;5.00;99.90;;;;;;5014609;28;20087;-58
2024/01/23 07:03:58;;;;;;;7.13;1.45;;;5.10;99.90;;;;;;5019235;28;20021;-58
2024/01/23 07:06:24;;;;;;;5.00;1.20;;;5.10;99.90;;;;;;5020689;28;20037;-58
2024/01/23 07:08:49;;;;;;;6.30;2.40;;;5.10;99.90;;;;;;5013497;28;20128;-58
2024/01/23 07:11:15;;;;;;;7.30;1.83;;;5.10;99.90;;;;;;5014049;28;20029;-59
2024/01/23 07:13:40;;;;;;;10.93;2.40;;;5.10;99.90;;;;;;5012583;28;20021;-59
2024/01/23 07:16:06;;;;;;;3.20;1.23;;;5.00;99.90;;;;;;5020097;28;20040;-58
2024/01/23 07:18:32;;;;;;;4.90;1.38;;;5.00;99.90;;;;;;5020515;28;20079;-59
2024/01/23 07:20:59;;;;;;;4.78;1.92;;;5.00;99.90;;;;;;5020239;28;20033;-59
2024/01/23 07:23:24;;;;;;;3.53;1.90;;;5.00;99.90;;;;;;5020073;28;20298;-58
2024/01/23 07:25:50;;;;;;;7.53;1.73;;;4.90;99.90;;;;;;5020102;28;20393;-59
2024/01/23 07:28:15;;;;;;;7.22;1.50;;;5.00;99.90;;;;;;5021902;28;20104;-58
2024/01/23 07:30:41;;;;;;;4.85;1.45;;;5.00;99.90;;;;;;5020334;28;20442;-59
2024/01/23 07:33:07;;;;;;;11.63;2.35;;;5.00;99.90;;;;;;5011979;28;20105;-59
2024/01/23 07:35:33;;;;;;;18.85;3.67;;;5.00;99.90;;;;;;5019783;28;20025;-58
2024/01/23 07:37:58;;;;;;;6.85;2.53;;;5.00;99.90;;;;;;5018616;28;20029;-58
2024/01/23 07:40:24;;;;;;;6.82;2.28;;;5.00;99.90;;;;;;5017752;28;20037;-59
2024/01/23 07:42:49;;;;;;;7.40;2.40;;;5.00;99.90;;;;;;5019768;28;20026;-59
2024/01/23 07:45:15;;;;;;;10.00;2.97;;;5.10;99.90;;;;;;5020277;28;20442;-59
2024/01/23 07:47:40;;;;;;;10.40;2.90;;;5.10;99.90;;;;;;5019767;28;20080;-59
2024/01/23 07:50:08;;;;;;;17.23;4.10;;;5.10;99.90;;;;;;5019500;28;20045;-58
2024/01/23 07:52:34;;;;;;;8.13;2.50;;;5.10;99.90;;;;;;5020086;28;20029;-58
2024/01/23 07:55:00;;;;;;;11.88;2.40;;;5.10;99.90;;;;;;5021506;28;20039;-59
2024/01/23 07:57:25;;;;;;;10.75;2.58;;;5.10;99.90;;;;;;5015746;28;20036;-58
2024/01/23 07:59:51;;;;;;;9.88;2.72;;;5.10;99.90;;;;;;5019495;28;20037;-58
2024/01/23 08:02:16;;;;;;;6.97;2.70;;;5.20;99.90;;;;;;5005438;28;20026;-59
2024/01/23 08:04:42;;;;;;;7.82;2.53;;;5.30;99.90;;;;;;5013756;28;20026;-58
2024/01/23 08:07:07;;;;;;;11.00;2.85;;;5.30;99.90;;;;;;5013053;28;20053;-58
2024/01/23 08:09:33;;;;;;;8.63;2.22;;;5.40;99.90;;;;;;5011629;28;20051;-58
2024/01/23 08:11:58;;;;;;;15.80;3.63;;;5.40;99.90;;;;;;5020655;28;20045;-59
2024/01/23 08:14:24;;;;;;;9.00;2.47;;;5.50;99.90;;;;;;5018547;28;20107;-58
2024/01/23 08:16:50;;;;;;;12.80;1.98;;;5.50;99.90;;;;;;5019707;28;20094;-59
2024/01/23 08:19:16;;;;;;;8.43;2.42;;;5.60;99.90;;;;;;5019511;28;20386;-58
2024/01/23 08:21:41;;;;;;;11.73;2.67;;;5.70;99.90;;;;;;5019379;28;20036;-58
2024/01/23 08:24:07;;;;;;;11.10;2.75;;;5.70;99.90;;;;;;5019425;28;20275;-59
2024/01/23 08:26:32;;;;;;;6.07;2.22;;;5.70;99.90;;;;;;5019648;28;20030;-58
2024/01/23 08:28:59;;;;;;;13.98;2.72;;;5.80;99.90;;;;;;5021406;28;20120;-59
2024/01/23 08:31:24;;;;;;;9.38;2.50;;;6.00;99.90;;;;;;5013733;28;20045;-59
2024/01/23 08:33:50;;;;;;;11.55;2.47;;;6.10;99.90;;;;;;5018726;28;20493;-58
2024/01/23 08:36:16;;;;;;;10.13;3.10;;;6.20;99.90;;;;;;5019587;28;20021;-59
2024/01/23 08:38:43;;;;;;;18.52;2.90;;;6.20;99.90;;;;;;5019487;28;20115;-59
2024/01/23 08:41:09;;;;;;;15.80;2.70;;;6.30;99.90;;;;;;5019295;28;20025;-59
2024/01/23 08:43:35;;;;;;;14.43;3.10;;;6.40;99.90;;;;;;5019365;28;20163;-59
2024/01/23 08:46:00;;;;;;;7.18;3.40;;;6.40;99.90;;;;;;5019599;28;20101;-59
2024/01/23 08:48:28;;;;;;;12.50;2.90;;;6.50;99.90;;;;;;5020896;28;20619;-59
2024/01/23 08:50:53;;;;;;;14.75;2.50;;;6.50;99.90;;;;;;5019128;28;20427;-58
2024/01/23 08:53:19;;;;;;;14.55;3.55;;;6.50;99.90;;;;;;5019607;28;20029;-58
2024/01/23 08:55:46;;;;;;;18.20;3.95;;;6.50;99.90;;;;;;5019159;28;20056;-58
2024/01/23 08:58:11;;;;;;;13.48;2.50;;;6.50;99.90;;;;;;5010976;28;20022;-59
2024/01/23 09:00:37;;;;;;;9.65;2.40;;;6.50;99.90;;;;;;5014816;28;20406;-58
2024/01/23 09:03:03;;;;;;;8.85;2.33;;;6.50;99.90;;;;;;5007155;28;20022;-59
2024/01/23 09:05:28;;;;;;;10.73;2.30;;;6.40;99.90;;;;;;5012016;28;20397;-58
2024/01/23 09:07:54;;;;;;;5.20;1.98;;;6.40;99.90;;;;;;5014408;28;20049;-58
2024/01/23 09:10:19;;;;;;;15.27;3.45;;;6.40;99.90;;;;;;5018883;28;20058;-59
2024/01/23 09:12:45;;;;;;;9.90;2.90;;;6.40;99.90;;;;;;5018937;28;20102;-58
2024/01/23 09:15:10;;;;;;;17.88;2.50;;;6.40;99.90;;;;;;5018923;28;20029;-58
2024/01/23 09:17:36;;;;;;;15.25;3.53;;;6.40;99.90;;;;;;5020846;28;20021;-58
2024/01/23 09:20:02;;;;;;;9.68;2.65;;;6.40;99.90;;;;;;5019022;28;20425;-58
2024/01/23 09:22:30;;;;;;;12.02;2.85;;;6.40;99.90;;;;;;5010500;28;20049;-59
2024/01/23 09:24:57;;;;;;;16.35;2.83;;;6.40;99.90;;;;;;5015303;28;20028;-58
2024/01/23 09:27:22;;;;;;;15.75;2.08;;;6.40;99.90;;;;;;5015177;28;20017;-59
2024/01/23 09:29:48;;;;;;;10.32;1.98;;;6.40;99.90;;;;;;5014889;28;20083;-58
2024/01/23 09:32:13;;;;;;;6.15;2.35;;;6.50;99.90;;;;;;5016463;28;20307;-58
2024/01/23 09:34:39;;;;;;;13.70;2.60;;;6.50;99.90;;;;;;5018156;28;20436;-58
2024/01/23 09:37:04;;;;;;;8.32;2.03;;;6.60;99.90;;;;;;5014102;28;20131;-59
2024/01/23 09:39:30;;;;;;;16.83;2.67;;;6.60;99.90;;;;;;5016128;28;20055;-59
2024/01/23 09:42:00;;;;;;;17.40;2.33;;;6.60;99.90;;;;;;5016250;28;20076;-59
2024/01/23 09:44:26;;;;;;;8.18;2.33;;;6.60;99.90;;;;;;5014030;28;20030;-59
2024/01/23 09:46:52;;;;;;;10.02;2.70;;;6.70;99.90;;;;;;5021908;28;20052;-58
2024/01/23 09:49:18;;;;;;;10.90;2.40;;;6.80;99.40;;;;;;5023870;28;20022;-59
2024/01/23 09:51:47;;;;;;;13.27;2.47;;;6.90;98.80;;;;;;5022206;28;20030;-59
2024/01/23 09:54:17;;;;;;;14.25;4.30;;;6.90;98.00;;;;;;5021909;28;20020;-59
2024/01/23 09:56:43;;;;;;;19.30;5.22;;;7.00;97.80;;;;;;5022013;28;20238;-58
2024/01/23 09:59:11;;;;;;;13.85;3.20;;;7.00;97.60;;;;;;5021748;28;20136;-58
2024/01/23 10:01:37;;;;;;;12.40;3.25;;;7.10;97.30;;;;;;5015829;28;20040;-60
2024/01/23 10:04:04;;;;;;;10.73;2.92;;;7.00;96.90;;;;;;5021962;28;20440;-65
2024/01/23 10:06:33;;;;;;;11.50;4.55;;;7.00;96.50;;;;;;5021683;28;20044;-65
2024/01/23 10:08:59;;;;;;;18.38;3.55;;;7.10;96.20;;;;;;5020313;28;20052;-65
2024/01/23 10:11:32;;;;;;;12.35;2.65;;;7.10;95.60;;;;;;5021652;28;20413;-65
2024/01/23 10:14:01;;;;;;;15.80;2.60;;;7.10;95.80;;;;;;5021620;28;20417;-65
2024/01/23 10:16:29;;;;;;;14.30;2.83;;;7.10;95.90;;;;;;5021356;28;20082;-64
2024/01/23 10:18:55;;;;;;;18.00;2.63;;;7.10;95.70;;;;;;5021614;28;20520;-63
2024/01/23 10:21:21;;;;;;;11.00;2.92;;;7.10;95.40;;;;;;5023380;28;20053;-65
2024/01/23 10:23:50;;;;;;;10.15;2.58;;;7.10;95.30;;;;;;5012379;28;20034;-65
2024/01/23 10:26:17;;;;;;;11.77;2.78;;;7.20;95.20;;;;;;5013450;28;20109;-65
2024/01/23 10:28:49;;;;;;;11.75;3.15;;;7.20;95.20;;;;;;5015467;28;20029;-64
2024/01/23 10:31:16;;;;;;;14.57;3.47;;;7.20;95.10;;;;;;5015767;28;20034;-65
2024/01/23 10:33:42;;;;;;;18.75;3.50;;;7.20;95.10;;;;;;5013505;28;20436;-64
2024/01/23 10:36:08;;;;;;;13.32;2.85;;;7.20;94.80;;;;;;5019590;28;20057;-65
2024/01/23 10:38:37;;;;;;;9.10;2.60;;;7.20;95.00;;;;;;5014276;28;20393;-65
2024/01/23 10:41:04;;;;;;;13.68;3.08;;;7.20;94.90;;;;;;5019185;28;20478;-65
2024/01/23 10:43:30;;;;;;;10.88;2.08;;;7.20;94.60;;;;;;5020897;28;20022;-65
2024/01/23 10:46:02;;;;;;;12.13;2.75;;;7.20;94.70;;;;;;5021137;28;20117;-65
2024/01/23 10:48:29;;;;;;;14.88;3.50;;;7.20;94.80;;;;;;5017739;28;20018;-65
2024/01/23 10:51:14;;;;;;;14.82;2.95;;;7.20;94.50;;;;;;5019053;28;21017;-65
2024/01/23 10:53:57;;;;;;;9.90;2.97;;;7.20;94.60;;;;;;5018412;28;20028;-66
2024/01/23 10:56:23;;;;;;;14.05;2.53;;;7.30;94.80;;;;;;5011856;28;20116;-65
2024/01/23 10:59:00;;;;;;;21.88;3.92;;;7.30;94.60;;;;;;5014775;28;20021;-65
2024/01/23 11:01:29;;;;;;;13.40;2.92;;;7.40;94.20;;;;;;5006939;28;20590;-65
2024/01/23 11:03:55;;;;;;;18.00;3.20;;;7.50;94.10;;;;;;5015124;28;20075;-65
2024/01/23 11:06:32;;;;;;;8.30;2.47;;;7.60;93.90;;;;;;5012737;28;20084;-65
2024/01/23 11:09:12;;;;;;;16.88;3.08;;;7.70;93.90;;;;;;5014180;28;20029;-65
2024/01/23 11:11:46;;;;;;;18.88;4.32;;;7.80;93.30;;;;;;5018625;28;20048;-65
2024/01/23 11:14:27;;;;;;;12.63;2.85;;;7.90;93.10;;;;;;5019104;28;20440;-65
2024/01/23 11:17:09;;;;;;;15.13;2.65;;;8.00;92.70;;;;;;5020579;28;20109;-64
2024/01/23 11:19:42;;;;;;;13.45;3.13;;;8.30;92.70;;;;;;5011637;28;20209;-65
2024/01/23 11:22:08;;;;;;;14.35;3.22;;;8.40;92.50;;;;;;5012009;28;20021;-65
2024/01/23 11:24:47;;;;;;;16.30;3.10;;;8.40;92.10;;;;;;5020240;28;20443;-65
2024/01/23 11:27:23;;;;;;;9.07;2.35;;;8.40;91.80;;;;;;5018042;28;20082;-65
2024/01/23 11:29:50;;;;;;;13.57;2.95;;;8.40;91.60;;;;;;5019795;28;20108;-64
2024/01/23 11:32:18;;;;;;;18.55;3.65;;;8.40;91.90;;;;;;5020258;28;20449;-64
2024/01/23 11:34:43;;;;;;;15.13;2.75;;;8.30;91.80;;;;;;5022304;28;20017;-64
2024/01/23 11:37:49;;;;;;;16.55;2.65;;;8.30;91.90;;;;;;5011322;28;20025;-66
2024/01/23 11:40:27;;;;;;;10.43;2.58;;;8.30;91.60;;;;;;5013546;28;20030;-65
2024/01/23 11:42:54;;;;;;;16.42;2.63;;;8.30;91.70;;;;;;5017846;28;20549;-65
2024/01/23 11:45:21;;;;;;;11.35;2.92;;;8.40;91.70;;;;;;5021621;28;20033;-65
2024/01/23 11:47:48;;;;;;;14.32;3.60;;;8.50;91.50;;;;;;5012854;28;20025;-64
2024/01/23 11:50:15;;;;;;;8.18;2.70;;;8.60;91.60;;;;;;5018527;28;20158;-65
2024/01/23 11:52:46;;;;;;;11.35;3.25;;;8.70;91.40;;;;;;5019813;28;20190;-65
2024/01/23 11:55:11;;;;;;;13.82;3.63;;;8.70;91.60;;;;;;5015508;28;20490;-65
2024/01/23 11:57:37;;;;;;;11.25;2.92;;;8.70;91.10;;;;;;5019856;28;20032;-65
2024/01/23 12:00:03;;;;;;;14.82;3.03;;;8.80;91.10;;;;;;5019475;28;20119;-65
2024/01/23 12:02:30;;;;;;;15.43;4.13;;;8.80;91.10;;;;;;5013616;28;20121;-65
2024/01/23 12:04:55;;;;;;;16.17;3.45;;;8.90;90.80;;;;;;5019598;28;20014;-64
2024/01/23 12:07:21;;;;;;;14.30;2.85;;;8.80;90.80;;;;;;5020316;28;20025;-65
2024/01/23 12:09:47;;;;;;;16.73;3.08;;;8.80;90.70;;;;;;5019254;28;20029;-65
2024/01/23 12:12:13;;;;;;;14.45;3.25;;;8.80;90.90;;;;;;5019815;28;20033;-65
2024/01/23 12:14:38;;;;;;;13.45;2.85;;;8.70;90.80;;;;;;5014738;28;20084;-65
2024/01/23 12:17:04;;;;;;;10.20;2.15;;;8.70;90.70;;;;;;5011151;28;20028;-65
2024/01/23 12:19:44;;;;;;;16.65;2.85;;;8.60;90.40;;;;;;5017191;28;20044;-65
2024/01/23 12:22:10;;;;;;;12.50;2.80;;;8.60;90.30;;;;;;5013226;28;20537;-65
2024/01/23 12:24:36;;;;;;;11.10;3.22;;;8.50;90.40;;;;;;5015481;28;20113;-65
2024/01/23 12:27:01;;;;;;;15.38;2.63;;;8.60;90.60;;;;;;5015119;28;20061;-64
2024/01/23 12:29:27;;;;;;;14.30;3.55;;;8.60;90.20;;;;;;5013286;28;20038;-65
2024/01/23 12:31:56;;;;;;;13.80;2.70;;;8.60;90.20;;;;;;5015209;28;20025;-65
2024/01/23 12:34:22;;;;;;;19.17;3.85;;;8.60;90.00;;;;;;5019445;28;20055;-65
2024/01/23 12:36:50;;;;;;;13.18;3.15;;;8.60;88.80;;;;;;5019049;28;20032;-65
2024/01/23 12:39:17;;;;;;;10.13;2.50;;;8.60;89.30;;;;;;5019766;28;20444;-64
2024/01/23 12:41:42;;;;;;;17.65;3.20;;;8.60;89.00;;;;;;5011271;28;20486;-64
2024/01/23 12:44:08;;;;;;;10.80;2.53;;;8.60;89.30;;;;;;5014499;28;20045;-65
2024/01/23 12:46:33;;;;;;;19.75;3.25;;;8.60;89.20;;;;;;5013579;28;20033;-65
2024/01/23 12:49:06;;;;;;;14.65;3.22;;;8.70;88.70;;;;;;5012141;28;20033;-65
2024/01/23 12:51:32;;;;;;;12.90;3.17;;;8.70;88.00;;;;;;5014778;28;20033;-65